Time;durP1;ratioP1;P1;durP2;ratioP2;P2;SDS_P1;SDS_P2;PMS_P1;PMS_P2;Temp;Humidity;BMP_temperature;BMP_pressure;BME280_temperature;BME280_humidity;BME280_pressure;Samples;Min_cycle;Max_cycle;Signal;HPM_P1;HPM_P2
2021/03/03 04:45:58;;;;;;;23.33;12.75;;;2.40;99.90;;;;;;1195860;23;87899;-86
2021/03/03 04:48:24;;;;;;;23.83;13.25;;;2.30;99.90;;;;;;4990225;28;87604;-88
2021/03/03 04:50:50;;;;;;;28.75;14.35;;;2.30;99.90;;;;;;4972735;28;86583;-87
2021/03/03 04:53:16;;;;;;;28.13;13.75;;;2.40;99.90;;;;;;4987285;28;87222;-87
2021/03/03 04:55:42;;;;;;;24.48;13.88;;;2.40;99.90;;;;;;4974047;28;88456;-87
2021/03/03 04:58:07;;;;;;;23.83;13.52;;;2.40;99.90;;;;;;4967388;28;90054;-86
2021/03/03 05:00:34;;;;;;;26.98;14.00;;;2.40;99.90;;;;;;4981269;28;86939;-87
2021/03/03 05:03:00;;;;;;;28.25;14.50;;;2.40;99.90;;;;;;4973388;28;87138;-85
2021/03/03 05:05:27;;;;;;;26.25;13.77;;;2.30;99.90;;;;;;4986536;28;87365;-87
2021/03/03 05:07:53;;;;;;;25.42;12.88;;;2.30;99.90;;;;;;4987684;28;86966;-87
2021/03/03 05:10:18;;;;;;;24.35;13.02;;;2.30;99.90;;;;;;4988163;28;87109;-87
2021/03/03 05:12:44;;;;;;;23.73;12.90;;;2.30;99.90;;;;;;4988397;28;86228;-88
2021/03/03 05:15:10;;;;;;;25.38;12.98;;;2.20;99.90;;;;;;4979568;28;87123;-86
2021/03/03 05:17:36;;;;;;;29.23;13.48;;;2.20;99.90;;;;;;4970960;28;88871;-87
2021/03/03 05:20:02;;;;;;;29.40;16.25;;;2.10;99.90;;;;;;4992935;28;87833;-85
2021/03/03 05:22:29;;;;;;;34.03;15.32;;;;;;;;;;4985615;28;86199;-86
2021/03/03 05:24:55;;;;;;;25.35;14.40;;;2.00;99.90;;;;;;4986612;28;89803;-87
2021/03/03 05:27:21;;;;;;;24.02;14.43;;;2.00;99.90;;;;;;5002977;28;86596;-87
2021/03/03 05:29:50;;;;;;;27.50;14.88;;;2.00;99.90;;;;;;4987276;28;86821;-85
2021/03/03 05:32:16;;;;;;;25.48;14.88;;;2.00;99.90;;;;;;4987269;28;87133;-87
2021/03/03 05:34:41;;;;;;;28.17;15.10;;;1.90;99.90;;;;;;4962451;28;87929;-88
2021/03/03 05:37:07;;;;;;;29.20;16.23;;;1.90;99.90;;;;;;4979546;28;87970;-86
2021/03/03 05:39:33;;;;;;;29.95;15.30;;;1.90;99.90;;;;;;4989190;28;86761;-86
2021/03/03 05:42:03;;;;;;;28.25;15.20;;;1.90;99.90;;;;;;4990299;28;86930;-85
2021/03/03 05:44:29;;;;;;;28.87;16.03;;;2.00;99.90;;;;;;4990085;28;87960;-84
2021/03/03 05:46:57;;;;;;;29.05;15.50;;;2.00;99.90;;;;;;4961571;28;91324;-86
2021/03/03 05:49:25;;;;;;;26.48;15.38;;;2.00;99.90;;;;;;4955337;28;86848;-84
2021/03/03 05:51:53;;;;;;;29.30;15.20;;;2.10;99.90;;;;;;4944281;28;87131;-89
2021/03/03 05:54:21;;;;;;;27.52;15.18;;;2.10;99.90;;;;;;4966921;28;87823;-87
2021/03/03 05:56:48;;;;;;;30.60;16.77;;;2.20;99.90;;;;;;4963213;28;86708;-87
2021/03/03 05:59:16;;;;;;;29.58;16.58;;;2.20;99.90;;;;;;4968828;28;86908;-88
2021/03/03 06:01:44;;;;;;;27.27;14.85;;;2.30;99.90;;;;;;4962142;28;85991;-89
2021/03/03 06:04:11;;;;;;;25.23;14.35;;;2.30;99.90;;;;;;4987527;28;86890;-88
2021/03/03 06:06:42;;;;;;;28.38;15.20;;;2.40;99.90;;;;;;4975576;28;86855;-88
2021/03/03 06:09:08;;;;;;;25.77;15.30;;;2.50;99.90;;;;;;4951758;28;87999;-86
2021/03/03 06:11:34;;;;;;;29.80;15.82;;;2.50;99.90;;;;;;4953152;28;87831;-87
2021/03/03 06:14:00;;;;;;;28.63;14.75;;;2.60;99.90;;;;;;4970044;28;87683;-90
2021/03/03 06:16:26;;;;;;;28.63;16.05;;;2.50;99.90;;;;;;4954439;28;89024;-89
2021/03/03 06:18:55;;;;;;;27.10;15.73;;;2.50;99.90;;;;;;4958270;28;86889;-88
2021/03/03 06:21:39;;;;;;;33.75;18.95;;;2.40;99.90;;;;;;4964372;28;87230;-89
2021/03/03 06:24:07;;;;;;;34.10;17.08;;;2.40;99.90;;;;;;4959060;28;88496;-88
2021/03/03 06:26:35;;;;;;;28.27;15.85;;;2.40;99.90;;;;;;4948327;28;89661;-87
2021/03/03 06:29:11;;;;;;;30.80;15.82;;;2.40;99.90;;;;;;4958635;28;87861;-87
2021/03/03 06:31:37;;;;;;;28.15;16.20;;;2.50;99.90;;;;;;4943055;28;89518;-86
2021/03/03 06:34:12;;;;;;;25.73;15.93;;;2.50;99.90;;;;;;4954394;28;88612;-87
2021/03/03 06:36:39;;;;;;;22.48;14.75;;;2.60;99.90;;;;;;4955126;28;87424;-89
2021/03/03 06:39:35;;;;;;;27.58;15.88;;;2.60;99.90;;;;;;4952212;28;87034;-90
2021/03/03 06:42:06;;;;;;;29.30;16.52;;;2.70;99.90;;;;;;4939936;28;87408;-87
2021/03/03 06:44:49;;;;;;;25.88;14.10;;;2.80;99.90;;;;;;4955303;28;88755;-88
2021/03/03 06:47:17;;;;;;;24.58;14.63;;;2.90;99.90;;;;;;4967542;28;88482;-89
2021/03/03 06:49:43;;;;;;;29.10;14.82;;;2.90;99.90;;;;;;4963403;28;86661;-89
2021/03/03 06:52:10;;;;;;;24.80;14.15;;;3.00;99.90;;;;;;4968892;28;85583;-89
2021/03/03 06:54:36;;;;;;;24.98;15.45;;;3.10;99.90;;;;;;4964886;28;90089;-88
2021/03/03 06:57:24;;;;;;;22.65;13.10;;;3.00;99.90;;;;;;4948448;28;88279;-88
2021/03/03 06:59:51;;;;;;;25.13;12.82;;;3.10;99.90;;;;;;4960909;28;87594;-88
2021/03/03 07:02:17;;;;;;;28.42;14.52;;;;;;;;;;4950481;28;86460;-89
2021/03/03 07:04:44;;;;;;;30.75;15.02;;;3.30;99.90;;;;;;4963813;28;88563;-90
2021/03/03 07:07:17;;;;;;;22.77;12.73;;;3.40;99.90;;;;;;4942063;28;88075;-89
2021/03/03 07:09:44;;;;;;;26.88;12.85;;;3.40;99.90;;;;;;4967812;28;86973;-89
2021/03/03 07:12:11;;;;;;;22.08;12.63;;;3.50;99.90;;;;;;4955025;28;87135;-88
2021/03/03 07:14:39;;;;;;;22.95;13.90;;;3.60;99.90;;;;;;4951433;28;87039;-87
2021/03/03 07:17:14;;;;;;;19.73;12.85;;;3.70;99.90;;;;;;4957346;28;87483;-88
2021/03/03 07:19:41;;;;;;;19.77;12.20;;;3.90;99.90;;;;;;4965114;28;86954;-87
2021/03/03 07:22:21;;;;;;;29.27;14.93;;;4.00;99.90;;;;;;4949903;28;87883;-88
2021/03/03 07:24:50;;;;;;;24.50;14.52;;;3.90;99.90;;;;;;4953538;28;87875;-88
2021/03/03 07:27:19;;;;;;;24.52;12.85;;;4.00;99.90;;;;;;4967210;28;87238;-88
2021/03/03 07:29:48;;;;;;;27.35;14.85;;;4.10;99.90;;;;;;4967142;28;86619;-88
2021/03/03 07:32:15;;;;;;;30.85;15.32;;;4.30;99.90;;;;;;4966691;28;87096;-87
2021/03/03 07:34:41;;;;;;;25.92;13.68;;;4.40;99.90;;;;;;4966076;28;88851;-87
2021/03/03 07:37:08;;;;;;;25.10;14.05;;;4.50;99.90;;;;;;4964253;28;87110;-88
2021/03/03 07:39:39;;;;;;;23.85;13.32;;;4.60;99.90;;;;;;4967106;28;86545;-88
2021/03/03 07:42:12;;;;;;;22.08;13.95;;;4.80;99.90;;;;;;4967949;28;85805;-87
2021/03/03 07:44:41;;;;;;;21.55;13.65;;;4.90;99.90;;;;;;4949646;28;90565;-89
2021/03/03 07:47:09;;;;;;;20.73;12.80;;;5.00;99.90;;;;;;4966413;28;88355;-88
2021/03/03 07:49:35;;;;;;;20.70;12.75;;;5.10;99.90;;;;;;4967209;28;87694;-88
2021/03/03 07:52:02;;;;;;;20.75;12.63;;;5.20;99.90;;;;;;4960569;28;86923;-88
2021/03/03 07:54:28;;;;;;;20.67;11.63;;;5.30;99.90;;;;;;4943942;28;90643;-88
2021/03/03 07:56:54;;;;;;;19.83;12.27;;;5.40;99.90;;;;;;4969563;28;87543;-88
2021/03/03 07:59:21;;;;;;;22.05;12.05;;;5.40;99.90;;;;;;4947749;28;86142;-87
2021/03/03 08:01:49;;;;;;;18.48;12.45;;;5.50;99.90;;;;;;4968182;28;87135;-89
2021/03/03 08:04:36;;;;;;;21.13;12.15;;;5.70;99.90;;;;;;4951080;28;90811;-89
2021/03/03 08:07:22;;;;;;;23.50;12.40;;;5.90;99.90;;;;;;4950552;28;90338;-88
2021/03/03 08:10:07;;;;;;;24.95;14.68;;;6.00;99.90;;;;;;4968923;28;86841;-87
2021/03/03 08:12:33;;;;;;;26.42;15.52;;;6.20;99.80;;;;;;4951748;28;87850;-88
2021/03/03 08:14:59;;;;;;;25.58;14.10;;;6.20;99.40;;;;;;4967583;28;89534;-88
2021/03/03 08:17:26;;;;;;;17.88;11.05;;;6.30;99.10;;;;;;4948656;28;91640;-88
2021/03/03 08:19:59;;;;;;;15.90;10.82;;;6.50;98.50;;;;;;4965999;28;86915;-87
2021/03/03 08:23:00;;;;;;;17.92;10.05;;;6.60;98.50;;;;;;4966790;28;86844;-88
2021/03/03 08:25:49;;;;;;;15.93;10.13;;;6.80;97.00;;;;;;4891168;28;91109;-88
2021/03/03 08:28:23;;;;;;;15.55;9.50;;;6.90;96.60;;;;;;4946706;28;89256;-87
2021/03/03 08:31:08;;;;;;;17.95;10.45;;;7.00;96.50;;;;;;4967777;28;86918;-88
2021/03/03 08:33:38;;;;;;;12.80;9.80;;;7.20;95.90;;;;;;4967296;28;85881;-88
2021/03/03 08:36:05;;;;;;;21.05;11.30;;;7.30;95.80;;;;;;4960233;28;87860;-88
2021/03/03 08:38:31;;;;;;;16.50;9.60;;;7.50;96.20;;;;;;4961126;28;87531;-88
2021/03/03 08:41:26;;;;;;;13.25;8.85;;;7.70;95.50;;;;;;4967432;28;87925;-88
2021/03/03 08:44:12;;;;;;;13.50;8.35;;;7.90;95.00;;;;;;4948242;28;86199;-87
2021/03/03 08:46:41;;;;;;;18.52;9.70;;;7.90;94.40;;;;;;4954180;28;91811;-89
2021/03/03 08:49:07;;;;;;;14.15;9.30;;;8.10;94.30;;;;;;4983805;28;87029;-89
2021/03/03 08:51:44;;;;;;;10.90;7.82;;;8.20;93.80;;;;;;4971947;28;86773;-88
2021/03/03 08:54:18;;;;;;;12.50;7.70;;;8.40;92.60;;;;;;4971412;28;86700;-89
2021/03/03 08:56:54;;;;;;;14.18;8.15;;;8.50;92.80;;;;;;4965061;28;90509;-88
2021/03/03 08:59:29;;;;;;;11.35;7.85;;;8.70;91.90;;;;;;4969265;28;86613;-89
2021/03/03 09:01:58;;;;;;;14.68;8.43;;;8.90;91.50;;;;;;4951653;28;86145;-88
2021/03/03 09:04:28;;;;;;;14.00;10.00;;;9.10;91.70;;;;;;4968347;28;87098;-88
2021/03/03 09:07:04;;;;;;;14.00;9.80;;;9.30;91.30;;;;;;4965895;28;88470;-89
2021/03/03 09:09:38;;;;;;;12.10;8.70;;;9.50;90.80;;;;;;4967589;28;87944;-88
2021/03/03 09:12:09;;;;;;;12.75;8.88;;;9.70;90.00;;;;;;4968537;28;86621;-89
2021/03/03 09:14:36;;;;;;;12.85;8.93;;;9.80;90.00;;;;;;4967181;28;86879;-87
2021/03/03 09:17:05;;;;;;;11.68;8.23;;;10.00;89.90;;;;;;4965706;28;87576;-89
2021/03/03 09:19:32;;;;;;;13.43;8.25;;;10.10;90.00;;;;;;4937330;28;88563;-87
2021/03/03 09:21:59;;;;;;;14.10;9.10;;;10.20;89.90;;;;;;4966299;28;86582;-88
2021/03/03 09:24:25;;;;;;;12.25;9.45;;;10.30;90.10;;;;;;4966225;28;87579;-87
2021/03/03 09:27:06;;;;;;;13.38;9.13;;;10.30;90.10;;;;;;4949073;28;89463;-88
2021/03/03 09:29:35;;;;;;;13.73;10.18;;;10.40;90.10;;;;;;4945195;28;88670;-88
2021/03/03 09:32:06;;;;;;;14.77;10.60;;;10.40;90.50;;;;;;4958125;28;87966;-88
2021/03/03 09:34:56;;;;;;;13.60;9.90;;;10.40;90.80;;;;;;4964758;28;87143;-88
2021/03/03 09:37:23;;;;;;;12.70;9.32;;;10.60;90.90;;;;;;4965425;28;87755;-88
2021/03/03 09:39:57;;;;;;;14.63;10.82;;;10.70;91.40;;;;;;4965446;28;86933;-88
2021/03/03 09:42:23;;;;;;;14.23;10.43;;;10.70;91.20;;;;;;4965545;28;86960;-87
2021/03/03 09:44:57;;;;;;;15.32;10.73;;;10.80;91.00;;;;;;4965569;28;86714;-87
2021/03/03 09:47:30;;;;;;;16.58;11.68;;;11.00;90.60;;;;;;4964771;28;87731;-89
2021/03/03 09:49:57;;;;;;;16.17;11.50;;;11.10;90.20;;;;;;4962744;28;87464;-88
2021/03/03 09:52:31;;;;;;;13.95;10.82;;;11.10;90.10;;;;;;4965806;28;86929;-87
2021/03/03 09:54:57;;;;;;;14.85;11.82;;;11.20;89.80;;;;;;4965929;28;87049;-88
2021/03/03 09:57:23;;;;;;;19.13;12.35;;;11.40;90.10;;;;;;4945709;28;90938;-87
2021/03/03 09:59:51;;;;;;;16.92;11.90;;;11.50;89.70;;;;;;4965404;28;88128;-87
2021/03/03 10:02:19;;;;;;;16.73;12.15;;;11.50;89.20;;;;;;4965729;28;87003;-88
2021/03/03 10:04:47;;;;;;;15.75;11.15;;;11.50;89.20;;;;;;4960688;28;86805;-88
2021/03/03 10:07:22;;;;;;;15.25;11.25;;;11.60;89.00;;;;;;4965636;28;88929;-88
2021/03/03 10:09:54;;;;;;;19.15;12.52;;;11.60;88.60;;;;;;4957403;28;87923;-87
2021/03/03 10:12:25;;;;;;;18.42;12.25;;;11.70;89.00;;;;;;4947569;28;87012;-88
2021/03/03 10:14:54;;;;;;;19.35;12.48;;;11.80;89.00;;;;;;4965733;28;86078;-88
2021/03/03 10:17:34;;;;;;;18.95;13.10;;;11.80;88.40;;;;;;4954449;28;89098;-88
2021/03/03 10:20:01;;;;;;;22.13;14.27;;;12.00;87.40;;;;;;4928078;28;90722;-88
2021/03/03 10:22:27;;;;;;;20.25;13.20;;;12.10;87.00;;;;;;4946285;28;87908;-88
2021/03/03 10:25:02;;;;;;;17.85;12.38;;;12.00;86.20;;;;;;4964198;28;86975;-88
2021/03/03 10:27:36;;;;;;;18.13;11.90;;;12.20;85.90;;;;;;4964065;28;87049;-88
2021/03/03 10:30:27;;;;;;;20.25;14.68;;;12.20;85.30;;;;;;4947235;28;87117;-85
2021/03/03 10:32:55;;;;;;;17.35;12.73;;;12.30;83.10;;;;;;4958533;28;86819;-87
2021/03/03 10:35:23;;;;;;;17.63;13.10;;;12.30;83.50;;;;;;4966791;28;87121;-89
2021/03/03 10:37:49;;;;;;;21.10;14.15;;;12.40;83.70;;;;;;4949583;28;90983;-90
2021/03/03 10:40:17;;;;;;;20.25;14.07;;;12.50;83.30;;;;;;4967513;28;87155;-87
2021/03/03 10:42:44;;;;;;;17.45;12.70;;;12.60;83.20;;;;;;4967820;28;86931;-87
2021/03/03 10:45:30;;;;;;;20.70;13.68;;;12.70;82.90;;;;;;4967966;28;86740;-87
2021/03/03 10:47:56;;;;;;;16.70;12.55;;;12.80;81.90;;;;;;4965960;28;88613;-87
2021/03/03 10:50:21;;;;;;;20.80;14.00;;;12.90;81.60;;;;;;4967738;28;87136;-87
2021/03/03 10:52:55;;;;;;;18.00;12.63;;;12.80;82.00;;;;;;4967437;28;86904;-88
2021/03/03 10:55:23;;;;;;;20.88;14.38;;;12.90;82.00;;;;;;4963988;28;87261;-88
2021/03/03 10:58:08;;;;;;;20.13;13.75;;;12.90;81.10;;;;;;4967298;28;87670;-88
2021/03/03 11:01:11;;;;;;;18.85;12.57;;;13.00;80.20;;;;;;4939802;28;90306;-88
2021/03/03 11:04:00;;;;;;;17.58;14.02;;;13.10;80.30;;;;;;4955133;28;86948;-87
2021/03/03 11:06:31;;;;;;;20.25;13.52;;;13.20;80.70;;;;;;4950016;28;88414;-87
2021/03/03 11:08:57;;;;;;;23.38;14.00;;;13.30;80.40;;;;;;4948961;28;90837;-88
2021/03/03 11:11:23;;;;;;;19.27;13.77;;;13.30;80.10;;;;;;4965628;28;86412;-87
2021/03/03 11:13:49;;;;;;;17.98;13.68;;;13.30;80.70;;;;;;4949120;28;87847;-87
2021/03/03 11:16:15;;;;;;;20.40;13.93;;;13.50;80.20;;;;;;4967716;28;86957;-87
2021/03/03 11:18:41;;;;;;;19.10;13.75;;;13.50;79.70;;;;;;4963834;28;87379;-88
2021/03/03 11:21:08;;;;;;;20.17;12.85;;;13.70;79.00;;;;;;4967925;28;86882;-88
2021/03/03 11:23:33;;;;;;;17.38;12.88;;;13.70;77.00;;;;;;4967628;28;86768;-88
2021/03/03 11:26:00;;;;;;;19.52;13.82;;;13.70;76.40;;;;;;4976810;28;86947;-89
2021/03/03 11:28:27;;;;;;;20.80;13.50;;;13.90;76.50;;;;;;4952439;28;89321;-87
2021/03/03 11:30:54;;;;;;;18.38;13.43;;;13.90;76.50;;;;;;4968045;28;87392;-88
2021/03/03 11:33:19;;;;;;;17.67;13.23;;;14.00;77.00;;;;;;4982792;28;86191;-88
2021/03/03 11:35:45;;;;;;;18.88;13.30;;;14.00;76.30;;;;;;4962936;28;88936;-88
2021/03/03 11:38:12;;;;;;;17.40;13.07;;;14.00;76.00;;;;;;4968705;28;89254;-88
2021/03/03 11:40:38;;;;;;;19.95;13.10;;;14.00;76.80;;;;;;4967809;28;88006;-88
2021/03/03 11:43:04;;;;;;;18.88;12.70;;;14.10;76.80;;;;;;4967570;28;86825;-88
2021/03/03 11:45:30;;;;;;;17.17;13.57;;;14.20;76.40;;;;;;4948978;28;87216;-87
2021/03/03 11:47:56;;;;;;;21.67;14.18;;;14.20;75.20;;;;;;4947425;28;90372;-89
2021/03/03 11:50:22;;;;;;;19.88;14.48;;;14.20;74.30;;;;;;4962064;28;87762;-89
2021/03/03 11:52:48;;;;;;;18.77;14.40;;;14.10;74.60;;;;;;4963094;28;86645;-87
2021/03/03 11:55:14;;;;;;;19.55;13.48;;;14.10;75.40;;;;;;4951049;28;86387;-88
2021/03/03 11:58:00;;;;;;;19.33;15.23;;;14.20;76.20;;;;;;4984626;28;87593;-87
2021/03/03 12:01:03;;;;;;;19.80;13.95;;;14.10;76.50;;;;;;4988835;28;86625;-87
2021/03/03 12:03:29;;;;;;;20.88;13.88;;;14.30;76.80;;;;;;4974622;28;87775;-87
2021/03/03 12:05:55;;;;;;;21.23;14.35;;;14.50;76.30;;;;;;4966056;28;86831;-88
2021/03/03 12:08:20;;;;;;;18.15;13.50;;;14.60;76.10;;;;;;4967010;28;87347;-88
2021/03/03 12:10:46;;;;;;;19.38;14.00;;;14.80;75.30;;;;;;4965549;28;87354;-88
2021/03/03 12:13:12;;;;;;;20.15;14.35;;;14.90;75.20;;;;;;4965839;28;86749;-87
2021/03/03 12:15:38;;;;;;;21.83;15.10;;;14.80;76.30;;;;;;4965512;28;86651;-88
2021/03/03 12:18:04;;;;;;;18.48;14.20;;;14.90;76.10;;;;;;4966238;28;87236;-87
2021/03/03 12:20:33;;;;;;;19.73;15.40;;;15.00;75.90;;;;;;4965231;28;87310;-87
2021/03/03 12:22:59;;;;;;;21.42;15.45;;;15.10;75.50;;;;;;4976681;28;87059;-88
2021/03/03 12:25:26;;;;;;;18.98;13.98;;;15.10;75.20;;;;;;4954226;28;86299;-90
2021/03/03 12:28:06;;;;;;;18.65;14.93;;;15.20;75.60;;;;;;4951298;28;93084;-92
2021/03/03 12:30:32;;;;;;;22.13;14.93;;;15.20;75.30;;;;;;4963609;28;88347;-88
2021/03/03 12:32:58;;;;;;;20.70;15.50;;;15.10;75.00;;;;;;4964777;28;87642;-87
2021/03/03 12:35:31;;;;;;;25.80;16.98;;;15.10;74.60;;;;;;4964384;28;86927;-88
2021/03/03 12:37:56;;;;;;;26.50;17.58;;;15.00;73.40;;;;;;4941063;28;89081;-88
2021/03/03 12:40:22;;;;;;;34.30;17.15;;;;;;;;;;4961663;28;87963;-87
2021/03/03 12:42:48;;;;;;;25.58;17.15;;;14.70;73.50;;;;;;4964333;28;86647;-88
2021/03/03 12:45:14;;;;;;;26.27;17.30;;;14.50;74.40;;;;;;4957996;28;86084;-88
2021/03/03 12:47:40;;;;;;;26.65;17.33;;;14.30;74.40;;;;;;4957324;28;87317;-88
2021/03/03 12:50:06;;;;;;;28.38;17.45;;;14.20;74.80;;;;;;4946417;28;90344;-87
2021/03/03 12:52:34;;;;;;;33.58;18.10;;;14.00;75.40;;;;;;4962825;28;87553;-87
2021/03/03 12:55:02;;;;;;;24.38;17.85;;;13.80;75.80;;;;;;4964694;28;86897;-87
2021/03/03 12:57:28;;;;;;;25.10;17.98;;;13.60;76.50;;;;;;4966011;28;88430;-89
2021/03/03 12:59:53;;;;;;;27.42;17.38;;;13.50;77.40;;;;;;4966749;28;88514;-86
2021/03/03 13:02:19;;;;;;;35.30;18.98;;;13.40;78.20;;;;;;4966243;28;86707;-88
2021/03/03 13:04:45;;;;;;;32.28;18.80;;;13.40;78.20;;;;;;4962240;28;86998;-87
2021/03/03 13:07:10;;;;;;;28.17;18.20;;;13.40;78.50;;;;;;4966568;28;88274;-89
2021/03/03 13:09:36;;;;;;;27.17;16.45;;;13.40;78.90;;;;;;4966736;28;88619;-87
2021/03/03 13:12:03;;;;;;;27.85;17.55;;;13.40;79.30;;;;;;4957620;28;86828;-88
2021/03/03 13:14:30;;;;;;;26.45;16.95;;;13.40;79.60;;;;;;4962303;28;86834;-87
2021/03/03 13:16:56;;;;;;;23.10;16.23;;;13.30;80.30;;;;;;4965322;28;88771;-87
2021/03/03 13:19:21;;;;;;;22.40;15.55;;;13.20;80.60;;;;;;4967410;28;88364;-87
2021/03/03 13:21:47;;;;;;;25.17;17.77;;;13.30;80.70;;;;;;4963922;28;86977;-87
2021/03/03 13:24:13;;;;;;;24.08;16.35;;;13.30;80.90;;;;;;4959065;28;87092;-87
2021/03/03 13:26:38;;;;;;;23.77;17.35;;;13.30;80.60;;;;;;4966085;28;88813;-88
2021/03/03 13:29:04;;;;;;;25.10;16.38;;;13.30;80.30;;;;;;4959170;28;86995;-87
2021/03/03 13:31:30;;;;;;;26.80;17.20;;;13.30;80.50;;;;;;4946476;28;88159;-87
2021/03/03 13:33:55;;;;;;;22.90;15.68;;;13.20;80.90;;;;;;4967798;28;86168;-88
2021/03/03 13:36:21;;;;;;;24.48;16.65;;;13.30;80.70;;;;;;4986482;28;86905;-86
2021/03/03 13:38:49;;;;;;;23.65;16.38;;;13.30;80.40;;;;;;4967508;28;89437;-86
2021/03/03 13:41:15;;;;;;;26.40;17.05;;;13.30;80.20;;;;;;4958081;28;87704;-87
2021/03/03 13:43:40;;;;;;;24.85;17.45;;;13.30;80.20;;;;;;4973900;28;86246;-86
2021/03/03 13:46:06;;;;;;;24.48;16.70;;;13.20;80.30;;;;;;4965975;28;87591;-87
2021/03/03 13:48:32;;;;;;;23.33;16.00;;;13.20;79.80;;;;;;4966455;28;88475;-87
2021/03/03 13:50:57;;;;;;;23.92;16.90;;;13.20;80.20;;;;;;4972844;28;86120;-86
2021/03/03 13:53:23;;;;;;;23.63;16.15;;;13.10;80.60;;;;;;4956514;28;86956;-86
2021/03/03 13:55:49;;;;;;;24.63;17.05;;;13.10;81.70;;;;;;4961151;28;87232;-87
2021/03/03 13:58:16;;;;;;;26.80;17.95;;;13.10;81.50;;;;;;4965495;28;87145;-87
2021/03/03 14:00:41;;;;;;;20.40;16.20;;;13.00;81.80;;;;;;4967462;28;86778;-86
2021/03/03 14:03:07;;;;;;;24.55;17.10;;;13.00;81.90;;;;;;4949574;28;86798;-87
2021/03/03 14:05:33;;;;;;;20.50;15.38;;;13.00;82.20;;;;;;4969196;28;89501;-87
2021/03/03 14:07:59;;;;;;;27.50;16.58;;;13.00;81.90;;;;;;4943376;28;91044;-86
2021/03/03 14:10:25;;;;;;;22.58;14.73;;;12.90;81.40;;;;;;4956697;28;86662;-87
2021/03/03 14:12:51;;;;;;;19.88;14.52;;;12.80;80.50;;;;;;4969452;28;87122;-87
2021/03/03 14:15:17;;;;;;;21.02;14.15;;;12.70;78.50;;;;;;4953982;28;89817;-87
2021/03/03 14:17:43;;;;;;;22.85;14.63;;;12.70;78.90;;;;;;4984031;28;87436;-88
2021/03/03 14:20:09;;;;;;;21.10;15.73;;;12.60;79.90;;;;;;4985186;28;86189;-87
2021/03/03 14:22:34;;;;;;;22.67;15.88;;;12.50;81.50;;;;;;4957009;28;86356;-89
2021/03/03 14:25:35;;;;;;;25.10;17.48;;;12.50;82.10;;;;;;5347228;23;88943;-87
2021/03/03 14:28:01;;;;;;;43.80;17.75;;;12.40;83.40;;;;;;5190950;23;89822;-88
2021/03/03 14:30:27;;;;;;;29.15;16.77;;;12.40;83.90;;;;;;4988010;28;87716;-88
2021/03/03 14:32:53;;;;;;;31.67;16.98;;;12.30;84.30;;;;;;4978192;28;86882;-86
2021/03/03 14:35:18;;;;;;;21.10;15.57;;;12.30;84.30;;;;;;4980684;28;88596;-88
2021/03/03 14:37:44;;;;;;;23.95;15.52;;;12.30;84.40;;;;;;4978598;28;87453;-88
2021/03/03 14:40:10;;;;;;;22.35;15.55;;;12.20;84.10;;;;;;4985214;28;87930;-91
2021/03/03 14:42:36;;;;;;;27.20;16.45;;;12.10;84.30;;;;;;4985495;28;86687;-88
2021/03/03 14:45:03;;;;;;;25.42;17.38;;;12.10;85.00;;;;;;4982128;28;89277;-88
2021/03/03 14:47:28;;;;;;;23.20;16.80;;;11.90;85.60;;;;;;4977614;28;88374;-87
2021/03/03 14:49:54;;;;;;;26.38;17.17;;;11.80;86.20;;;;;;4983733;28;86970;-89
2021/03/03 14:52:20;;;;;;;28.55;18.85;;;11.70;86.70;;;;;;4957305;28;87020;-87
2021/03/03 14:54:45;;;;;;;25.38;18.27;;;11.70;86.90;;;;;;4979565;28;87851;-88
2021/03/03 14:57:11;;;;;;;23.42;16.85;;;11.60;87.40;;;;;;4984186;28;88216;-88
2021/03/03 14:59:42;;;;;;;23.60;16.98;;;11.50;87.90;;;;;;4968173;28;86902;-87
2021/03/03 15:02:12;;;;;;;26.73;17.50;;;11.40;88.20;;;;;;4970825;28;86483;-86
2021/03/03 15:04:39;;;;;;;25.80;16.27;;;11.40;88.90;;;;;;4969511;28;87838;-87
2021/03/03 15:07:07;;;;;;;27.35;17.23;;;11.30;89.10;;;;;;4968541;28;87458;-87
2021/03/03 15:09:35;;;;;;;25.77;17.17;;;11.20;88.90;;;;;;4967453;28;86699;-87
2021/03/03 15:12:02;;;;;;;21.25;15.70;;;11.10;89.10;;;;;;4980074;28;86227;-86
2021/03/03 15:14:28;;;;;;;25.75;16.55;;;11.10;89.80;;;;;;4984376;28;87935;-86
2021/03/03 15:16:54;;;;;;;23.95;16.63;;;11.00;89.90;;;;;;4981690;28;87523;-86
2021/03/03 15:19:20;;;;;;;26.75;17.00;;;10.90;89.60;;;;;;4977121;28;87644;-89
2021/03/03 15:21:45;;;;;;;25.20;15.55;;;10.90;90.00;;;;;;4970247;28;87182;-86
2021/03/03 15:24:11;;;;;;;23.85;15.82;;;10.80;88.90;;;;;;4973899;28;87386;-87
2021/03/03 15:26:38;;;;;;;24.27;17.02;;;10.80;88.90;;;;;;4970418;28;87370;-88
2021/03/03 15:29:04;;;;;;;23.33;16.13;;;10.60;88.30;;;;;;4973059;28;86327;-88
2021/03/03 15:31:30;;;;;;;33.35;20.52;;;10.60;87.60;;;;;;4979796;28;87005;-87
2021/03/03 15:33:55;;;;;;;32.85;20.92;;;10.50;86.90;;;;;;4976563;28;88061;-89
2021/03/03 15:36:21;;;;;;;29.63;18.63;;;10.50;86.50;;;;;;4956931;28;88899;-88
2021/03/03 15:38:47;;;;;;;28.63;20.58;;;10.30;86.60;;;;;;4976572;28;86824;-88
2021/03/03 15:41:13;;;;;;;28.98;19.83;;;10.30;87.20;;;;;;4975628;28;86963;-88
2021/03/03 15:43:38;;;;;;;38.15;22.95;;;10.20;87.70;;;;;;4973582;28;87798;-88
2021/03/03 15:46:04;;;;;;;39.75;24.70;;;10.10;88.10;;;;;;4958122;28;89842;-86
2021/03/03 15:48:30;;;;;;;35.95;23.30;;;10.00;88.50;;;;;;4973737;28;88440;-87
2021/03/03 15:50:56;;;;;;;29.67;19.67;;;10.00;88.80;;;;;;4978241;28;86953;-88
2021/03/03 15:53:21;;;;;;;28.58;18.88;;;9.90;88.90;;;;;;4982655;28;86873;-88
2021/03/03 15:55:47;;;;;;;27.75;18.58;;;9.90;89.00;;;;;;4976803;28;87556;-86
2021/03/03 15:58:13;;;;;;;32.13;18.48;;;9.70;89.30;;;;;;4981742;28;87055;-87
2021/03/03 16:00:40;;;;;;;28.00;20.60;;;9.70;89.70;;;;;;4980728;28;86382;-88
2021/03/03 16:03:06;;;;;;;26.85;18.45;;;9.60;90.00;;;;;;4976962;28;91244;-88
2021/03/03 16:05:38;;;;;;;25.00;17.45;;;9.60;90.00;;;;;;4985991;28;86511;-87
2021/03/03 16:08:05;;;;;;;27.45;18.98;;;9.50;90.10;;;;;;5032899;23;87591;-88
2021/03/03 16:10:30;;;;;;;28.38;18.92;;;9.40;89.80;;;;;;4964770;28;86740;-88
2021/03/03 16:12:59;;;;;;;31.25;19.20;;;9.40;89.80;;;;;;4968994;28;87483;-88
2021/03/03 16:15:31;;;;;;;29.13;20.48;;;9.30;89.80;;;;;;4961852;28;88363;-90
2021/03/03 16:17:58;;;;;;;31.58;20.45;;;9.20;90.10;;;;;;4944293;28;87131;-87
2021/03/03 16:20:24;;;;;;;30.48;19.63;;;9.20;90.40;;;;;;4970024;28;86915;-87
2021/03/03 16:22:51;;;;;;;24.77;17.90;;;9.10;90.50;;;;;;4957684;28;88075;-86
2021/03/03 16:25:16;;;;;;;27.67;18.33;;;9.00;90.70;;;;;;4961147;28;86518;-86
2021/03/03 16:27:42;;;;;;;26.95;18.92;;;8.90;90.70;;;;;;4937809;28;86899;-86
2021/03/03 16:30:10;;;;;;;27.55;17.77;;;8.90;90.80;;;;;;4969547;28;87004;-86
2021/03/03 16:32:36;;;;;;;23.88;17.33;;;8.80;90.80;;;;;;4959111;28;88379;-86
2021/03/03 16:35:04;;;;;;;23.98;16.38;;;8.70;90.80;;;;;;4945829;28;90737;-86
2021/03/03 16:37:30;;;;;;;29.92;18.65;;;8.60;90.70;;;;;;4950799;28;87063;-87
2021/03/03 16:39:57;;;;;;;26.45;16.30;;;8.60;90.70;;;;;;4953710;28;86968;-86
2021/03/03 16:42:23;;;;;;;30.73;17.25;;;8.50;90.60;;;;;;4949999;28;87852;-85
2021/03/03 16:44:49;;;;;;;28.77;16.85;;;8.50;90.70;;;;;;4953762;28;88409;-86
2021/03/03 16:47:52;;;;;;;30.58;17.60;;;8.40;90.50;;;;;;4932834;28;86928;-87
2021/03/03 16:50:19;;;;;;;28.33;18.13;;;8.30;91.00;;;;;;4940067;28;87021;-84
2021/03/03 16:52:45;;;;;;;29.73;18.38;;;8.20;91.00;;;;;;4917461;28;88498;-85
2021/03/03 16:55:11;;;;;;;29.83;19.13;;;8.10;91.30;;;;;;4947233;28;86974;-86
2021/03/03 16:57:37;;;;;;;30.17;18.77;;;8.00;91.60;;;;;;4941921;28;87701;-87
2021/03/03 17:00:08;;;;;;;31.67;18.27;;;8.00;92.10;;;;;;4938822;28;86874;-86
2021/03/03 17:02:34;;;;;;;27.02;18.35;;;7.90;92.30;;;;;;4926595;28;87079;-86
2021/03/03 17:05:00;;;;;;;28.45;18.45;;;7.80;92.50;;;;;;4942873;28;87440;-89
2021/03/03 17:07:27;;;;;;;50.67;30.88;;;7.70;93.10;;;;;;4939244;28;87165;-87
2021/03/03 17:09:54;;;;;;;46.92;28.67;;;7.60;93.10;;;;;;4937766;28;86871;-88
2021/03/03 17:12:23;;;;;;;37.38;24.95;;;7.50;93.60;;;;;;4948316;28;87809;-87
2021/03/03 17:14:52;;;;;;;33.05;20.38;;;7.40;93.50;;;;;;4943523;28;87182;-88
2021/03/03 17:17:17;;;;;;;33.72;20.70;;;7.40;93.50;;;;;;4937773;28;86971;-85
2021/03/03 17:19:44;;;;;;;29.20;19.05;;;7.30;93.60;;;;;;4927642;28;87106;-88
2021/03/03 17:22:12;;;;;;;31.13;19.95;;;7.20;93.80;;;;;;4926950;28;88617;-88
2021/03/03 17:24:38;;;;;;;30.02;18.17;;;7.10;93.90;;;;;;4937753;28;89579;-88
2021/03/03 17:27:05;;;;;;;27.65;18.40;;;7.10;94.00;;;;;;4914544;28;86696;-86